createdAt,value
2023-04-24T00:02:05.023Z,82.30
2023-04-24T00:04:33.395Z,82.40
2023-04-24T00:07:01.328Z,82.50
2023-04-24T00:09:28.280Z,82.70
2023-04-24T00:11:55.407Z,82.80
2023-04-24T00:14:22.566Z,82.80
2023-04-24T00:16:49.610Z,83.00
2023-04-24T00:19:17.434Z,83.10
2023-04-24T00:21:44.855Z,83.20
2023-04-24T00:24:12.236Z,83.30
2023-04-24T00:26:39.135Z,83.30
2023-04-24T00:29:06.102Z,83.40
2023-04-24T00:31:35.706Z,83.50
2023-04-24T00:34:04.027Z,83.50
2023-04-24T00:36:31.833Z,83.60
2023-04-24T00:38:58.933Z,83.70
2023-04-24T00:41:26.994Z,83.80
2023-04-24T00:43:54.305Z,83.90
2023-04-24T00:46:22.402Z,84.00
2023-04-24T00:48:49.631Z,84.20
2023-04-24T00:51:16.707Z,85.00
2023-04-24T00:53:43.879Z,84.40
2023-04-24T00:56:11.204Z,84.50
2023-04-24T00:58:38.456Z,84.60
2023-04-24T01:01:08.049Z,84.80
2023-04-24T01:03:38.509Z,84.80
2023-04-24T01:06:06.868Z,84.90
2023-04-24T01:08:39.771Z,85.00
2023-04-24T01:11:07.266Z,85.00
2023-04-24T01:13:34.824Z,85.20
2023-04-24T01:16:02.416Z,85.40
2023-04-24T01:18:29.881Z,85.60
2023-04-24T01:21:03.759Z,85.70
2023-04-24T01:23:31.823Z,86.10
2023-04-24T01:25:58.819Z,86.00
2023-04-24T01:28:26.773Z,86.10
2023-04-24T01:30:54.459Z,86.20
2023-04-24T01:33:24.241Z,86.30
2023-04-24T01:35:51.473Z,86.30
2023-04-24T01:38:18.819Z,86.30
2023-04-24T01:40:45.977Z,86.30
2023-04-24T01:43:13.963Z,86.40
2023-04-24T01:45:40.939Z,86.30
2023-04-24T01:48:08.110Z,86.20
2023-04-24T01:50:35.232Z,86.10
2023-04-24T01:53:02.477Z,86.10
2023-04-24T01:55:30.666Z,86.10
2023-04-24T01:57:58.005Z,86.10
2023-04-24T02:00:25.895Z,86.20
2023-04-24T02:02:54.173Z,86.30
2023-04-24T02:05:21.475Z,86.40
2023-04-24T02:07:48.713Z,86.50
2023-04-24T02:10:15.804Z,86.70
2023-04-24T02:12:43.465Z,86.80
2023-04-24T02:15:11.507Z,87.00
2023-04-24T02:17:39.455Z,87.00
2023-04-24T02:20:08.228Z,87.00
2023-04-24T02:22:35.153Z,87.10
2023-04-24T02:25:03.042Z,87.20
2023-04-24T02:27:29.870Z,87.20
2023-04-24T02:29:57.662Z,87.10
2023-04-24T02:32:24.725Z,87.20
2023-04-24T02:34:51.578Z,87.20
2023-04-24T02:37:18.537Z,87.20
2023-04-24T02:39:45.581Z,87.20
2023-04-24T02:42:12.660Z,87.20
2023-04-24T02:44:39.895Z,87.20
2023-04-24T02:47:06.904Z,87.30
2023-04-24T02:49:33.857Z,87.30
2023-04-24T02:52:00.813Z,87.30
2023-04-24T02:54:27.868Z,87.30
2023-04-24T02:56:55.013Z,87.30
2023-04-24T02:59:21.990Z,87.40
2023-04-24T03:01:49.181Z,87.40
2023-04-24T03:04:16.744Z,88.00
2023-04-24T03:06:43.990Z,87.40
2023-04-24T03:09:11.293Z,87.40
2023-04-24T03:11:38.523Z,87.40
2023-04-24T03:14:05.570Z,87.50
2023-04-24T03:16:34.115Z,87.50
2023-04-24T03:19:01.131Z,87.40
2023-04-24T03:21:31.595Z,87.40
2023-04-24T03:23:59.176Z,87.30
2023-04-24T03:26:26.731Z,87.30
2023-04-24T03:29:13.936Z,87.30
2023-04-24T03:31:41.190Z,87.30
2023-04-24T03:34:08.288Z,87.30
2023-04-24T03:36:36.099Z,87.90
2023-04-24T03:39:04.625Z,87.10
2023-04-24T03:41:34.659Z,87.00
2023-04-24T03:44:12.163Z,87.00
2023-04-24T03:46:39.363Z,86.80
2023-04-24T03:49:07.569Z,86.70
2023-04-24T03:51:38.254Z,86.60
2023-04-24T03:54:24.098Z,86.50
2023-04-24T03:56:52.532Z,86.20
2023-04-24T03:59:19.611Z,86.30
2023-04-24T04:01:51.761Z,86.20
2023-04-24T04:04:19.043Z,86.00
2023-04-24T04:06:47.483Z,86.00
2023-04-24T04:09:15.124Z,85.90
2023-04-24T04:11:42.154Z,85.80
2023-04-24T04:14:09.250Z,85.60
2023-04-24T04:16:39.776Z,85.50
2023-04-24T04:19:08.238Z,85.40
2023-04-24T04:21:35.850Z,85.20
2023-04-24T04:24:27.365Z,85.10
2023-04-24T04:26:57.692Z,84.80
2023-04-24T04:29:29.498Z,84.70
2023-04-24T04:31:56.887Z,84.70
2023-04-24T04:34:24.351Z,84.50
2023-04-24T04:36:52.526Z,84.40
2023-04-24T04:39:42.402Z,84.30
2023-04-24T04:42:18.123Z,84.20
2023-04-24T04:44:45.922Z,84.00
2023-04-24T04:47:19.164Z,84.10
2023-04-24T04:49:46.449Z,83.80
2023-04-24T04:52:20.674Z,83.70
2023-04-24T04:54:52.419Z,83.60
2023-04-24T04:57:19.603Z,83.70
2023-04-24T04:59:46.929Z,83.60
2023-04-24T05:02:21.917Z,83.50
2023-04-24T05:04:49.186Z,83.40
2023-04-24T05:07:16.531Z,83.20
2023-04-24T05:09:48.110Z,83.00
2023-04-24T05:12:15.287Z,82.90
2023-04-24T05:14:50.161Z,82.70
2023-04-24T05:17:17.540Z,82.50
2023-04-24T05:19:45.383Z,82.30
2023-04-24T05:22:13.320Z,82.20
2023-04-24T05:24:49.096Z,82.00
2023-04-24T05:27:35.141Z,81.90
2023-04-24T05:30:07.392Z,81.70
2023-04-24T05:32:35.000Z,81.50
2023-04-24T05:35:02.472Z,81.50
2023-04-24T05:37:29.336Z,81.40
2023-04-24T05:39:56.473Z,81.30
2023-04-24T05:42:23.922Z,81.10
2023-04-24T05:44:53.287Z,81.10
2023-04-24T05:47:22.921Z,81.00
2023-04-24T05:49:51.252Z,80.80
2023-04-24T05:52:18.304Z,80.70
2023-04-24T05:54:45.893Z,80.60
2023-04-24T05:57:16.601Z,80.50
2023-04-24T05:59:55.172Z,81.00
2023-04-24T06:02:23.285Z,80.10
2023-04-24T06:04:50.749Z,79.90
2023-04-24T06:07:18.720Z,79.70
2023-04-24T06:09:45.984Z,79.50
2023-04-24T06:12:13.060Z,79.20
2023-04-24T06:15:07.173Z,79.10
2023-04-24T06:18:13.509Z,78.90
2023-04-24T06:20:41.814Z,78.70
2023-04-24T06:23:10.443Z,78.40
2023-04-24T06:25:37.658Z,78.20
2023-04-24T06:28:04.819Z,78.00
2023-04-24T06:30:32.297Z,77.60
2023-04-24T06:33:09.202Z,77.50
2023-04-24T06:35:46.272Z,77.10
2023-04-24T06:38:13.187Z,77.00
2023-04-24T06:40:40.294Z,76.80
2023-04-24T06:43:07.337Z,76.50
2023-04-24T06:45:34.460Z,76.10
2023-04-24T06:48:01.499Z,76.00
2023-04-24T06:50:28.740Z,75.90
2023-04-24T06:52:55.932Z,75.60
2023-04-24T06:55:23.014Z,75.40
2023-04-24T06:57:50.019Z,74.50
2023-04-24T07:00:17.230Z,73.80
2023-04-24T07:02:44.259Z,73.10
2023-04-24T07:05:13.450Z,73.10
2023-04-24T07:07:41.198Z,72.50
2023-04-24T07:10:09.725Z,72.10
2023-04-24T07:12:37.175Z,71.90
2023-04-24T07:15:05.210Z,71.80
2023-04-24T07:17:32.785Z,71.30
2023-04-24T07:20:00.842Z,70.90
2023-04-24T07:22:27.937Z,70.60
2023-04-24T07:24:55.006Z,70.20
2023-04-24T07:27:22.013Z,69.60
2023-04-24T07:29:50.012Z,67.90
2023-04-24T07:32:17.077Z,67.70
2023-04-24T07:34:44.378Z,66.40
2023-04-24T07:37:11.732Z,65.40
2023-04-24T07:39:38.798Z,64.70
2023-04-24T07:42:05.944Z,64.00
2023-04-24T07:44:33.218Z,62.70
2023-04-24T07:47:00.630Z,62.00
2023-04-24T07:49:28.808Z,61.30
2023-04-24T07:51:56.076Z,60.30
2023-04-24T07:54:22.983Z,60.00
2023-04-24T07:56:50.528Z,60.00
2023-04-24T07:59:17.739Z,60.10
2023-04-24T08:01:44.750Z,60.40
2023-04-24T08:04:11.980Z,60.40
2023-04-24T08:06:39.033Z,59.50
2023-04-24T08:09:06.010Z,58.80
2023-04-24T08:11:33.786Z,58.10
2023-04-24T08:14:01.075Z,57.60
2023-04-24T08:16:28.326Z,56.70
2023-04-24T08:18:55.696Z,56.50
2023-04-24T08:21:22.723Z,55.90
2023-04-24T08:23:49.674Z,55.00
2023-04-24T08:26:16.785Z,54.50
2023-04-24T08:28:43.917Z,54.10
2023-04-24T08:31:11.290Z,54.20
2023-04-24T08:33:38.389Z,54.20
2023-04-24T08:36:07.172Z,54.00
2023-04-24T08:38:35.118Z,53.60
2023-04-24T08:41:03.016Z,53.30
2023-04-24T08:43:30.270Z,53.40
2023-04-24T08:45:58.328Z,52.80
2023-04-24T08:48:30.842Z,52.30
2023-04-24T08:51:00.299Z,51.70
2023-04-24T08:53:28.054Z,51.40
2023-04-24T08:55:57.903Z,51.10
2023-04-24T08:58:29.276Z,50.40
2023-04-24T09:00:56.642Z,49.50
2023-04-24T09:03:24.310Z,47.90
2023-04-24T09:05:51.755Z,46.70
2023-04-24T09:08:26.521Z,44.90
2023-04-24T09:10:53.500Z,44.10
2023-04-24T09:13:21.580Z,43.40
2023-04-24T09:15:48.588Z,43.60
2023-04-24T09:18:15.761Z,43.80
2023-04-24T09:21:07.299Z,43.20
2023-04-24T09:23:34.780Z,42.20
2023-04-24T09:26:06.008Z,42.30
2023-04-24T09:28:41.810Z,41.70
2023-04-24T09:31:15.790Z,42.20
2023-04-24T09:34:07.232Z,42.20
2023-04-24T09:36:44.011Z,42.00
2023-04-24T09:39:17.616Z,42.20
2023-04-24T09:41:52.908Z,42.20
2023-04-24T09:44:27.904Z,42.60
2023-04-24T09:47:01.638Z,43.20
2023-04-24T09:49:31.806Z,43.90
2023-04-24T09:52:11.108Z,44.60
2023-04-24T09:54:41.453Z,45.50
2023-04-24T09:57:11.558Z,46.20
2023-04-24T09:59:45.777Z,47.30
2023-04-24T10:02:22.432Z,48.20
2023-04-24T10:05:01.642Z,48.80
2023-04-24T10:07:29.134Z,49.00
2023-04-24T10:09:56.531Z,48.60
2023-04-24T10:12:24.788Z,48.30
2023-04-24T10:14:52.215Z,47.80
2023-04-24T10:17:21.694Z,47.60
2023-04-24T10:19:49.754Z,47.60
2023-04-24T10:22:18.039Z,47.70
2023-04-24T10:24:46.436Z,48.30
2023-04-24T10:27:16.561Z,47.60
2023-04-24T10:29:46.004Z,47.30
2023-04-24T10:32:13.232Z,47.20
2023-04-24T10:34:40.237Z,47.50
2023-04-24T10:37:07.411Z,47.70
2023-04-24T10:39:34.649Z,48.00
2023-04-24T10:42:01.936Z,48.70
2023-04-24T10:44:37.652Z,48.50
2023-04-24T10:47:05.061Z,48.40
2023-04-24T10:49:33.257Z,48.30
2023-04-24T10:52:07.942Z,46.80
2023-04-24T10:54:47.979Z,45.40
2023-04-24T10:57:24.314Z,45.30
2023-04-24T11:00:15.020Z,44.90
2023-04-24T11:02:49.336Z,44.60
2023-04-24T11:05:18.905Z,44.00
2023-04-24T11:08:15.764Z,43.50
2023-04-24T11:10:48.127Z,43.60
2023-04-24T11:13:22.517Z,43.50
2023-04-24T11:16:27.198Z,43.90
2023-04-24T11:19:30.712Z,44.80
2023-04-24T11:22:06.611Z,46.00
2023-04-24T11:24:48.629Z,45.80
2023-04-24T11:27:23.764Z,45.40
2023-04-24T11:29:57.063Z,44.60
2023-04-24T11:32:45.290Z,43.00
2023-04-24T11:35:22.839Z,42.40
2023-04-24T11:40:24.160Z,41.50
2023-04-24T11:42:53.796Z,41.90
2023-04-24T11:45:25.526Z,46.60
2023-04-24T11:47:52.759Z,50.00
2023-04-24T11:50:24.021Z,51.50
2023-04-24T11:52:52.037Z,53.80
2023-04-24T11:55:19.756Z,55.90
2023-04-24T11:57:51.487Z,60.00
2023-04-24T12:00:21.407Z,63.20
2023-04-24T12:02:49.701Z,68.60
2023-04-24T12:05:25.268Z,75.60
2023-04-24T12:07:53.406Z,75.30
2023-04-24T12:10:29.635Z,76.80
2023-04-24T12:12:58.822Z,76.70
2023-04-24T12:15:26.398Z,74.90
2023-04-24T12:17:55.461Z,72.30
2023-04-24T12:20:32.391Z,68.00
2023-04-24T12:23:01.370Z,61.40
2023-04-24T12:25:34.153Z,58.00
2023-04-24T12:28:04.062Z,55.60
2023-04-24T12:30:38.279Z,54.60
2023-04-24T12:33:05.318Z,52.70
2023-04-24T12:35:34.810Z,51.70
2023-04-24T12:38:14.891Z,49.80
2023-04-24T12:40:43.655Z,46.90
2023-04-24T12:43:21.215Z,44.50
2023-04-24T12:45:51.586Z,42.80
2023-04-24T12:48:18.700Z,41.60
2023-04-24T12:50:47.065Z,40.00
2023-04-24T12:53:15.805Z,37.40
2023-04-24T12:55:43.391Z,35.10
2023-04-24T12:58:10.608Z,33.90
2023-04-24T13:00:38.309Z,33.10
2023-04-24T13:03:06.267Z,33.00
2023-04-24T13:05:33.533Z,33.30
2023-04-24T13:08:00.777Z,33.40
2023-04-24T13:10:27.799Z,33.70
2023-04-24T13:12:55.132Z,34.40
2023-04-24T13:15:22.246Z,34.20
2023-04-24T13:17:49.154Z,34.30
2023-04-24T13:20:16.272Z,34.10
2023-04-24T13:22:43.165Z,33.70
2023-04-24T13:25:11.145Z,33.10
2023-04-24T13:27:40.533Z,31.20
2023-04-24T13:30:08.731Z,30.60
2023-04-24T13:32:36.379Z,31.30
2023-04-24T13:35:03.809Z,31.10
2023-04-24T13:37:30.913Z,30.90
2023-04-24T13:39:57.878Z,30.00
2023-04-24T13:42:24.923Z,29.40
2023-04-24T13:44:52.376Z,29.00
2023-04-24T13:47:19.363Z,28.40
2023-04-24T13:49:46.337Z,28.50
2023-04-24T13:52:13.354Z,28.40
2023-04-24T13:54:40.438Z,28.30
2023-04-24T13:57:07.567Z,27.70
2023-04-24T13:59:34.969Z,27.50
2023-04-24T14:02:02.202Z,27.40
2023-04-24T14:04:29.255Z,27.00
2023-04-24T14:06:56.593Z,27.00
2023-04-24T14:09:24.003Z,27.00
2023-04-24T14:11:52.386Z,27.00
2023-04-24T14:14:19.631Z,27.10
2023-04-24T14:16:46.627Z,27.10
2023-04-24T14:19:13.552Z,27.40
2023-04-24T14:21:41.027Z,27.60
2023-04-24T14:24:09.010Z,27.90
2023-04-24T14:26:36.361Z,28.00
2023-04-24T14:29:14.172Z,27.80
2023-04-24T14:31:42.822Z,27.70
2023-04-24T14:34:10.306Z,27.20
2023-04-24T14:36:37.272Z,27.00
2023-04-24T14:39:07.575Z,27.50
2023-04-24T14:41:38.623Z,27.10
2023-04-24T14:44:06.241Z,27.40
2023-04-24T14:46:33.642Z,27.50
2023-04-24T14:49:00.768Z,27.70
2023-04-24T14:51:27.795Z,28.00
2023-04-24T14:53:54.646Z,27.90
2023-04-24T14:56:21.533Z,28.20
2023-04-24T14:58:48.633Z,28.60
2023-04-24T15:01:17.440Z,29.10
2023-04-24T15:03:46.328Z,29.30
2023-04-24T15:06:13.624Z,28.90
2023-04-24T15:08:40.768Z,28.50
2023-04-24T15:11:07.893Z,28.20
2023-04-24T15:13:35.204Z,27.90
2023-04-24T15:16:03.092Z,28.00
2023-04-24T15:18:30.272Z,28.00
2023-04-24T15:20:57.767Z,28.20
2023-04-24T15:23:24.808Z,28.40
2023-04-24T15:25:51.853Z,28.90
2023-04-24T15:28:18.952Z,29.30
2023-04-24T15:30:46.037Z,29.60
2023-04-24T15:33:13.038Z,30.00
2023-04-24T15:35:41.248Z,30.50
2023-04-24T15:38:08.680Z,30.90
2023-04-24T15:40:35.872Z,31.10
2023-04-24T15:43:02.843Z,31.00
2023-04-24T15:45:30.094Z,31.10
2023-04-24T15:47:57.254Z,31.10
2023-04-24T15:50:24.606Z,31.50
2023-04-24T15:52:51.685Z,31.80
2023-04-24T15:55:18.724Z,32.30
2023-04-24T15:57:46.105Z,32.60
2023-04-24T16:00:14.000Z,32.90
2023-04-24T16:02:41.385Z,33.40
2023-04-24T16:05:09.517Z,33.70
2023-04-24T16:07:38.951Z,34.10
2023-04-24T16:10:06.489Z,34.30
2023-04-24T16:12:33.828Z,34.70
2023-04-24T16:15:01.382Z,35.10
2023-04-24T16:17:28.451Z,35.30
2023-04-24T16:19:55.524Z,35.60
2023-04-24T16:22:22.651Z,35.80
2023-04-24T16:24:49.682Z,36.10
2023-04-24T16:27:16.547Z,36.80
2023-04-24T16:29:43.852Z,36.40
2023-04-24T16:32:11.121Z,36.60
2023-04-24T16:34:38.108Z,36.90
2023-04-24T16:37:06.608Z,37.20
2023-04-24T16:39:34.260Z,37.30
2023-04-24T16:42:01.820Z,37.60
2023-04-24T16:44:28.956Z,37.90
2023-04-24T16:46:56.544Z,38.10
2023-04-24T16:49:23.906Z,38.30
2023-04-24T16:51:51.111Z,38.70
2023-04-24T16:54:18.284Z,39.00
2023-04-24T16:56:45.592Z,39.20
2023-04-24T16:59:12.633Z,39.60
2023-04-24T17:01:39.895Z,39.80
2023-04-24T17:04:07.097Z,40.00
2023-04-24T17:06:34.430Z,40.60
2023-04-24T17:09:01.491Z,40.80
2023-04-24T17:11:30.953Z,41.10
2023-04-24T17:14:01.887Z,41.40
2023-04-24T17:16:29.449Z,41.70
2023-04-24T17:18:56.564Z,41.80
2023-04-24T17:21:23.953Z,42.20
2023-04-24T17:23:51.051Z,43.30
2023-04-24T17:26:18.144Z,43.20
2023-04-24T17:28:45.330Z,44.00
2023-04-24T17:31:12.457Z,44.60
2023-04-24T17:33:39.525Z,45.30
2023-04-24T17:36:07.642Z,45.70
2023-04-24T17:38:35.037Z,46.10
2023-04-24T17:41:02.410Z,46.60
2023-04-24T17:43:29.647Z,47.40
2023-04-24T17:45:57.154Z,47.70
2023-04-24T17:48:24.220Z,48.20
2023-04-24T17:50:51.807Z,48.50
2023-04-24T17:53:19.046Z,48.60
2023-04-24T17:55:46.643Z,48.60
2023-04-24T17:58:14.892Z,48.70
2023-04-24T18:00:42.122Z,48.80
2023-04-24T18:03:10.557Z,48.80
2023-04-24T18:05:39.191Z,48.90
2023-04-24T18:08:06.846Z,49.10
2023-04-24T18:10:37.751Z,49.20
2023-04-24T18:13:05.362Z,49.40
2023-04-24T18:15:32.685Z,49.40
2023-04-24T18:17:59.844Z,49.60
2023-04-24T18:20:27.198Z,49.70
2023-04-24T18:22:54.678Z,50.00
2023-04-24T18:25:26.608Z,50.40
2023-04-24T18:27:55.688Z,50.50
2023-04-24T18:30:24.188Z,50.70
2023-04-24T18:32:53.261Z,50.90
2023-04-24T18:35:21.877Z,51.20
2023-04-24T18:37:50.130Z,51.10
2023-04-24T18:40:17.862Z,51.20
2023-04-24T18:42:45.299Z,51.50
2023-04-24T18:45:14.992Z,51.40
2023-04-24T18:47:44.056Z,51.40
2023-04-24T18:50:12.141Z,51.50
2023-04-24T18:52:39.206Z,51.50
2023-04-24T18:55:07.307Z,51.40
2023-04-24T18:57:34.377Z,51.20
2023-04-24T19:00:01.632Z,51.30
2023-04-24T19:02:28.937Z,51.50
2023-04-24T19:04:56.132Z,51.60
2023-04-24T19:07:23.094Z,52.00
2023-04-24T19:09:50.208Z,52.00
2023-04-24T19:12:17.390Z,52.00
2023-04-24T19:14:46.181Z,52.00
2023-04-24T19:17:13.932Z,52.30
2023-04-24T19:19:40.877Z,52.40
2023-04-24T19:22:08.002Z,52.50
2023-04-24T19:24:35.351Z,52.60
2023-04-24T19:27:02.545Z,52.50
2023-04-24T19:29:29.531Z,52.80
2023-04-24T19:31:58.500Z,53.10
2023-04-24T19:34:26.704Z,53.10
2023-04-24T19:36:54.216Z,53.40
2023-04-24T19:39:21.223Z,53.60
2023-04-24T19:41:48.054Z,53.80
2023-04-24T19:44:15.862Z,54.00
2023-04-24T19:46:43.598Z,54.30
2023-04-24T19:49:10.567Z,54.70
2023-04-24T19:51:38.691Z,54.70
2023-04-24T19:54:06.416Z,55.00
2023-04-24T19:56:34.007Z,55.30
2023-04-24T19:59:01.451Z,55.40
2023-04-24T20:01:28.657Z,55.50
2023-04-24T20:03:56.118Z,56.30
2023-04-24T20:06:23.670Z,55.70
2023-04-24T20:08:51.050Z,55.90
2023-04-24T20:11:18.473Z,55.80
2023-04-24T20:13:45.805Z,56.00
2023-04-24T20:16:12.871Z,56.10
2023-04-24T20:18:39.875Z,56.20
2023-04-24T20:21:07.016Z,56.40
2023-04-24T20:23:33.933Z,56.40
2023-04-24T20:26:01.282Z,56.70
2023-04-24T20:28:30.001Z,56.70
2023-04-24T20:30:58.888Z,56.70
2023-04-24T20:33:27.972Z,57.20
2023-04-24T20:35:55.624Z,57.40
2023-04-24T20:38:22.899Z,57.40
2023-04-24T20:40:57.624Z,57.40
2023-04-24T20:43:28.647Z,57.70
2023-04-24T20:45:57.488Z,57.80
2023-04-24T20:48:24.539Z,58.00
2023-04-24T20:50:53.803Z,58.30
2023-04-24T20:53:21.134Z,58.30
2023-04-24T20:55:48.626Z,58.40
2023-04-24T20:58:20.716Z,58.60
2023-04-24T21:00:47.949Z,58.80
2023-04-24T21:03:15.610Z,59.00
2023-04-24T21:05:42.833Z,59.00
2023-04-24T21:08:09.696Z,59.20
2023-04-24T21:10:36.812Z,59.30
2023-04-24T21:13:03.814Z,59.50
2023-04-24T21:15:30.887Z,59.70
2023-04-24T21:17:58.206Z,59.90
2023-04-24T21:20:25.839Z,60.00
2023-04-24T21:22:52.807Z,60.10
2023-04-24T21:25:19.871Z,60.60
2023-04-24T21:27:47.537Z,60.60
2023-04-24T21:30:14.770Z,61.10
2023-04-24T21:32:41.994Z,61.60
2023-04-24T21:35:09.622Z,61.70
2023-04-24T21:37:39.488Z,61.70
2023-04-24T21:40:11.478Z,62.00
2023-04-24T21:42:41.084Z,62.40
2023-04-24T21:45:09.665Z,62.20
2023-04-24T21:47:36.978Z,62.40
2023-04-24T21:50:05.602Z,62.90
2023-04-24T21:52:32.518Z,63.50
2023-04-24T21:54:59.771Z,63.90
2023-04-24T21:57:26.927Z,64.20
2023-04-24T21:59:53.916Z,64.50
2023-04-24T22:02:21.594Z,64.70
2023-04-24T22:04:50.444Z,65.00
2023-04-24T22:07:17.488Z,65.20
2023-04-24T22:09:44.578Z,65.70
2023-04-24T22:12:11.652Z,65.70
2023-04-24T22:14:38.554Z,65.80
2023-04-24T22:17:05.505Z,66.20
2023-04-24T22:19:32.732Z,66.30
2023-04-24T22:21:59.958Z,66.30
2023-04-24T22:24:26.919Z,66.50
2023-04-24T22:26:54.083Z,66.70
2023-04-24T22:29:21.435Z,66.90
2023-04-24T22:31:49.024Z,66.90
2023-04-24T22:34:17.013Z,67.30
2023-04-24T22:36:44.186Z,67.30
2023-04-24T22:39:15.742Z,67.40
2023-04-24T22:41:43.005Z,67.60
2023-04-24T22:44:11.020Z,67.90
2023-04-24T22:46:38.231Z,67.90
2023-04-24T22:49:05.276Z,68.00
2023-04-24T22:51:35.331Z,68.30
2023-04-24T22:54:04.621Z,68.30
2023-04-24T22:56:32.147Z,68.60
2023-04-24T22:58:59.603Z,68.50
2023-04-24T23:01:27.767Z,69.00
2023-04-24T23:03:55.300Z,69.10
2023-04-24T23:06:22.375Z,69.10
2023-04-24T23:08:49.616Z,69.20
2023-04-24T23:11:17.174Z,69.70
2023-04-24T23:13:44.450Z,69.50
2023-04-24T23:16:11.680Z,70.00
2023-04-24T23:18:38.613Z,70.10
2023-04-24T23:21:06.022Z,70.20
2023-04-24T23:23:33.222Z,70.40
2023-04-24T23:26:01.044Z,70.00
2023-04-24T23:28:28.307Z,69.90
2023-04-24T23:30:55.331Z,69.80
2023-04-24T23:33:22.342Z,69.50
2023-04-24T23:35:49.621Z,69.40
2023-04-24T23:38:16.706Z,69.20
2023-04-24T23:40:43.704Z,69.00
2023-04-24T23:43:10.678Z,69.00
2023-04-24T23:45:37.674Z,68.80
2023-04-24T23:48:05.044Z,68.70
2023-04-24T23:50:32.431Z,68.60
2023-04-24T23:52:59.588Z,68.40
2023-04-24T23:55:26.730Z,68.20
2023-04-24T23:57:53.992Z,68.20
